Time;durP1;ratioP1;P1;durP2;ratioP2;P2;SDS_P1;SDS_P2;PMS_P1;PMS_P2;Temp;Humidity;BMP_temperature;BMP_pressure;BME280_temperature;BME280_humidity;BME280_pressure;Samples;Min_cycle;Max_cycle;Signal;HPM_P1;HPM_P2
2022/08/09 00:00:44;;;;;;;5.85;2.78;;;;;;;17.77;82.13;97120.13;5019688;28;20383;-60
2022/08/09 00:03:10;;;;;;;6.18;3.30;;;;;;;17.68;82.86;97110.66;5031526;28;20083;-60
2022/08/09 00:05:35;;;;;;;4.20;3.10;;;;;;;17.72;82.30;97123.31;5031165;28;20057;-61
2022/08/09 00:08:00;;;;;;;7.57;3.33;;;;;;;17.66;82.88;97118.59;5030584;28;20033;-62
2022/08/09 00:10:26;;;;;;;5.78;2.65;;;;;;;17.61;82.94;97114.28;5031274;28;20104;-63
2022/08/09 00:12:51;;;;;;;4.93;2.60;;;;;;;17.65;82.55;97120.56;5030789;28;20033;-62
2022/08/09 00:15:17;;;;;;;6.00;3.05;;;;;;;17.65;82.94;97123.34;5030378;28;20087;-61
2022/08/09 00:17:43;;;;;;;3.83;2.95;;;;;;;17.72;82.29;97119.75;5029224;28;20061;-63
2022/08/09 00:20:09;;;;;;;6.88;3.00;;;;;;;17.70;82.06;97117.38;5025071;28;20108;-63
2022/08/09 00:22:34;;;;;;;3.70;3.13;;;;;;;17.79;81.42;97116.94;5026416;28;20063;-62
2022/08/09 00:25:00;;;;;;;8.45;3.25;;;;;;;17.75;81.88;97110.63;5031010;28;20105;-60
2022/08/09 00:27:25;;;;;;;5.82;2.80;;;;;;;17.65;82.38;97122.56;5030717;28;20060;-62
2022/08/09 00:29:51;;;;;;;6.90;3.20;;;;;;;17.63;82.27;97113.84;5031116;28;20052;-61
2022/08/09 00:32:17;;;;;;;5.68;3.25;;;;;;;17.68;81.90;97110.66;5020701;28;20029;-62
2022/08/09 00:34:43;;;;;;;4.20;2.72;;;;;;;17.68;81.63;97110.66;5030931;28;20032;-63
2022/08/09 00:37:08;;;;;;;3.90;2.80;;;;;;;17.74;81.14;97107.06;5029250;28;20578;-61
2022/08/09 00:39:34;;;;;;;3.40;2.95;;;;;;;17.62;82.06;97113.06;5030943;28;20033;-63
2022/08/09 00:41:59;;;;;;;3.78;2.80;;;;;;;17.60;82.21;97109.13;5030585;28;20061;-62
2022/08/09 00:44:24;;;;;;;12.15;3.47;;;;;;;17.55;82.18;97111.09;5030767;28;20021;-63
2022/08/09 00:46:50;;;;;;;7.70;2.88;;;;;;;17.53;82.34;97109.94;5021072;28;20026;-63
2022/08/09 00:49:15;;;;;;;5.30;2.90;;;;;;;17.52;82.28;97111.94;5030664;28;20068;-62
2022/08/09 00:51:41;;;;;;;6.03;3.10;;;;;;;17.51;82.15;97121.41;5030622;28;20087;-62
2022/08/09 00:54:07;;;;;;;6.10;2.90;;;;;;;17.55;82.26;97108.34;5030570;28;20032;-62
2022/08/09 00:56:32;;;;;;;4.15;2.92;;;;;;;17.45;82.96;97116.69;5029055;28;20091;-60
2022/08/09 00:58:57;;;;;;;6.75;2.95;;;;;;;17.47;82.40;97117.88;5030297;28;20033;-63
2022/08/09 01:01:28;;;;;;;3.70;3.13;;;;;;;17.42;82.70;97110.00;5029481;28;20113;-63
2022/08/09 01:04:03;;;;;;;4.20;3.30;;;;;;;17.38;82.85;97112.78;5030350;28;20112;-62
2022/08/09 01:06:47;;;;;;;4.53;2.80;;;;;;;17.35;83.05;97102.50;5029083;28;20033;-63
2022/08/09 01:09:36;;;;;;;6.30;3.30;;;;;;;17.33;83.00;97106.88;5030403;28;20572;-63
2022/08/09 01:12:14;;;;;;;13.63;6.03;;;;;;;17.34;83.04;97113.97;5022436;28;20083;-63
2022/08/09 01:14:59;;;;;;;4.07;2.70;;;;;;;17.33;83.01;97117.94;5030334;28;20787;-63
2022/08/09 01:17:30;;;;;;;4.32;2.80;;;;;;;17.45;81.58;97105.63;5030105;28;20037;-63
2022/08/09 01:20:03;;;;;;;7.20;2.97;;;;;;;17.47;81.24;97112.34;5030269;28;20025;-63
2022/08/09 01:22:38;;;;;;;5.10;2.97;;;;;;;17.43;81.56;97119.06;5030229;28;20029;-63
2022/08/09 01:25:44;;;;;;;6.72;2.92;;;;;;;17.52;80.40;97124.97;5025749;28;20042;-64
2022/08/09 01:28:10;;;;;;;4.43;2.60;;;;;;;17.47;80.97;97125.41;5015665;28;20041;-62
2022/08/09 01:30:37;;;;;;;5.70;2.80;;;;;;;17.53;80.05;97124.56;5034203;28;20700;-63
2022/08/09 01:33:07;;;;;;;5.18;2.88;;;;;;;17.47;80.71;97125.41;5034117;28;20704;-62
2022/08/09 01:36:02;;;;;;;5.00;2.80;;;;;;;17.42;80.77;97126.59;5034065;28;20025;-61
2022/08/09 01:38:33;;;;;;;5.80;2.65;;;;;;;17.43;80.58;97130.16;5029362;28;20395;-62
2022/08/09 01:41:05;;;;;;;4.43;2.88;;;;;;;17.30;81.48;97121.50;5025347;28;20029;-63
2022/08/09 01:43:37;;;;;;;6.18;3.42;;;;;;;17.25;81.68;97117.19;5032323;28;20035;-63
2022/08/09 01:46:03;;;;;;;5.80;3.08;;;;;;;17.16;82.11;97125.09;5025060;28;20025;-62
2022/08/09 01:48:30;;;;;;;3.92;2.80;;;;;;;17.12;82.45;97125.09;5033623;28;20034;-62
2022/08/09 01:50:57;;;;;;;4.82;3.00;;;;;;;17.19;81.64;97119.56;5033658;28;20021;-62
2022/08/09 01:53:25;;;;;;;5.05;3.00;;;;;;;17.08;82.57;97116.03;5032535;28;20052;-61
2022/08/09 01:55:52;;;;;;;3.22;2.70;;;;;;;17.04;82.91;97112.50;5034070;28;20059;-62
2022/08/09 01:58:19;;;;;;;3.78;2.67;;;;;;;17.04;83.03;97122.78;5033550;28;20667;-63
2022/08/09 02:00:45;;;;;;;5.32;3.22;;;;;;;16.98;83.09;97120.41;5032857;28;20037;-63
2022/08/09 02:03:12;;;;;;;3.70;2.88;;;;;;;16.94;83.30;97118.84;5033822;28;20080;-63
2022/08/09 02:05:41;;;;;;;6.65;3.13;;;;;;;16.95;83.05;97117.66;5033295;28;20026;-64
2022/08/09 02:08:12;;;;;;;6.63;3.70;;;;;;;16.90;83.37;97116.06;5028814;28;20034;-62
2022/08/09 02:10:40;;;;;;;3.92;3.03;;;;;;;16.85;83.54;97108.19;5030357;28;20037;-61
2022/08/09 02:13:08;;;;;;;7.53;3.38;;;;;;;16.80;84.30;97109.34;5034816;28;20039;-63
2022/08/09 02:15:38;;;;;;;6.72;3.53;;;;;;;16.79;83.94;97118.03;5033468;28;20564;-63
2022/08/09 02:18:05;;;;;;;3.85;2.90;;;;;;;16.72;84.58;97107.00;5040964;28;20045;-61
2022/08/09 02:20:34;;;;;;;4.88;2.65;;;;;;;16.74;84.69;97122.00;5039436;28;20033;-61
2022/08/09 02:23:08;;;;;;;3.75;2.78;;;;;;;16.81;83.63;97113.69;5033958;28;20029;-63
2022/08/09 02:25:38;;;;;;;5.13;3.17;;;;;;;16.86;82.97;97114.53;5033352;28;20025;-62
2022/08/09 02:28:12;;;;;;;5.28;3.20;;;;;;;16.94;82.37;97118.84;5032553;28;20033;-63
2022/08/09 02:30:44;;;;;;;5.70;3.60;;;;;;;16.93;82.18;97118.06;5033180;28;20057;-62
2022/08/09 02:33:15;;;;;;;3.22;2.88;;;;;;;16.82;82.81;97114.50;5033021;28;20034;-63
2022/08/09 02:35:42;;;;;;;5.38;3.25;;;;;;;16.74;83.66;97115.69;5031431;28;20121;-61
2022/08/09 02:38:10;;;;;;;5.35;3.05;;;;;;;16.74;83.38;97112.91;5023562;28;20029;-59
2022/08/09 02:40:37;;;;;;;5.88;3.05;;;;;;;16.74;83.34;97110.94;5032644;28;20029;-62
2022/08/09 02:43:07;;;;;;;4.10;2.90;;;;;;;16.70;83.50;97112.91;5028481;28;20072;-63
2022/08/09 02:45:39;;;;;;;3.95;3.10;;;;;;;16.67;83.85;97122.00;5028724;28;20029;-62
2022/08/09 02:48:08;;;;;;;6.32;3.00;;;;;;;16.58;84.60;97111.38;5032795;28;20140;-61
2022/08/09 02:50:38;;;;;;;4.07;3.03;;;;;;;16.60;83.90;97114.53;5031875;28;20021;-62
2022/08/09 02:53:23;;;;;;;4.13;3.08;;;;;;;16.58;84.54;97113.31;5024986;28;20029;-60
2022/08/09 02:55:51;;;;;;;10.05;3.40;;;;;;;16.53;84.31;97111.75;5031147;28;20575;-61
2022/08/09 02:58:21;;;;;;;8.25;3.10;;;;;;;16.47;84.70;97104.25;5032562;28;20103;-61
2022/08/09 03:00:48;;;;;;;4.93;3.05;;;;;;;16.51;84.65;97102.25;5032634;28;20030;-62
2022/08/09 03:03:16;;;;;;;3.75;2.85;;;;;;;16.52;84.41;97101.88;5026434;28;20042;-61
2022/08/09 03:05:42;;;;;;;4.85;2.92;;;;;;;16.53;83.99;97099.88;5029401;28;20033;-61
2022/08/09 03:08:10;;;;;;;4.25;3.22;;;;;;;16.51;84.21;97100.31;5031412;28;20061;-62
2022/08/09 03:10:37;;;;;;;7.85;3.15;;;;;;;16.40;84.93;97100.31;5032533;28;20124;-62
2022/08/09 03:13:03;;;;;;;3.80;3.20;;;;;;;16.36;85.33;97107.00;5032250;28;20044;-61
2022/08/09 03:15:29;;;;;;;4.65;3.03;;;;;;;16.40;84.77;97105.03;5031748;28;20029;-61
2022/08/09 03:17:56;;;;;;;5.63;3.30;;;;;;;16.41;84.75;97107.41;5030617;28;20084;-62
2022/08/09 03:20:23;;;;;;;6.75;3.25;;;;;;;16.39;84.61;97106.25;5031400;28;20075;-62
2022/08/09 03:22:49;;;;;;;5.15;2.90;;;;;;;16.43;84.56;97105.03;5023295;28;20026;-61
2022/08/09 03:25:14;;;;;;;4.18;2.80;;;;;;;16.34;84.65;97110.16;5025267;28;20036;-61
2022/08/09 03:27:42;;;;;;;5.75;3.45;;;;;;;16.38;84.32;97104.66;5031554;28;20064;-61
2022/08/09 03:30:09;;;;;;;6.60;3.28;;;;;;;16.42;83.85;97105.44;5031861;28;20467;-61
2022/08/09 03:32:36;;;;;;;6.53;3.22;;;;;;;16.50;83.28;97118.06;5031810;28;20041;-61
2022/08/09 03:35:01;;;;;;;4.03;3.40;;;;;;;16.45;83.59;97112.94;5031801;28;20040;-62
2022/08/09 03:37:27;;;;;;;5.53;2.70;;;;;;;16.44;83.72;97116.91;5030076;28;20037;-62
2022/08/09 03:39:53;;;;;;;4.43;3.40;;;;;;;16.40;83.82;97108.59;5031474;28;20033;-62
2022/08/09 03:42:18;;;;;;;8.05;3.10;;;;;;;16.28;85.02;97116.47;5031720;28;20064;-62
2022/08/09 03:44:44;;;;;;;4.00;3.05;;;;;;;16.29;84.63;97118.84;5030032;28;20082;-63
2022/08/09 03:47:09;;;;;;;5.10;3.17;;;;;;;16.19;85.07;97112.16;5029821;28;20025;-61
2022/08/09 03:49:35;;;;;;;6.72;3.22;;;;;;;16.11;86.17;97116.06;5031599;28;20036;-62
2022/08/09 03:52:02;;;;;;;8.07;3.33;;;;;;;16.04;86.82;97124.34;5026910;28;20119;-61
2022/08/09 03:54:35;;;;;;;6.93;3.38;;;;;;;16.00;87.13;97116.06;5026292;28;20022;-60
2022/08/09 03:57:07;;;;;;;4.28;3.40;;;;;;;15.91;88.16;97115.66;5031414;28;20713;-61
2022/08/09 03:59:34;;;;;;;6.43;3.28;;;;;;;15.89;88.30;97120.78;5032550;28;20083;-62
2022/08/09 04:01:59;;;;;;;5.00;3.65;;;;;;;15.81;89.44;97119.97;5034105;28;20433;-62
2022/08/09 04:04:26;;;;;;;5.45;3.13;;;;;;;15.86;88.70;97127.09;5032517;28;20029;-62
2022/08/09 04:06:52;;;;;;;7.13;3.97;;;;;;;15.78;89.83;97131.03;5028033;28;20044;-62
2022/08/09 04:09:17;;;;;;;6.90;3.88;;;;;;;15.75;90.11;97129.81;5023882;28;20021;-62
2022/08/09 04:12:07;;;;;;;4.93;3.60;;;;;;;15.76;89.82;97130.63;5031224;28;20076;-63
2022/08/09 04:14:33;;;;;;;5.45;3.40;;;;;;;15.73;89.74;97134.13;5022831;28;20142;-62
2022/08/09 04:16:59;;;;;;;4.70;3.80;;;;;;;15.75;89.94;97134.56;5030238;28;20120;-63
2022/08/09 04:19:24;;;;;;;5.32;3.60;;;;;;;15.80;89.16;97136.94;5030717;28;20030;-63
2022/08/09 04:21:49;;;;;;;3.90;3.40;;;;;;;15.85;88.46;97142.09;5030075;28;20039;-63
2022/08/09 04:24:15;;;;;;;5.10;3.53;;;;;;;15.84;88.75;97149.56;5022733;28;20109;-62
2022/08/09 04:26:40;;;;;;;5.22;3.50;;;;;;;15.88;88.25;97138.53;5029346;28;20033;-63
2022/08/09 04:29:06;;;;;;;7.20;2.90;;;;;;;15.91;88.05;97135.00;5030777;28;20075;-62
2022/08/09 04:31:31;;;;;;;4.32;3.28;;;;;;;15.91;87.76;97146.03;5030610;28;20394;-63
2022/08/09 04:33:57;;;;;;;5.78;3.20;;;;;;;16.04;86.83;97146.44;5030466;28;20495;-61
2022/08/09 04:36:25;;;;;;;6.43;3.85;;;;;;;16.00;87.25;97149.22;5029124;28;20087;-61
2022/08/09 04:38:51;;;;;;;7.10;3.28;;;;;;;16.00;87.08;97154.72;5030172;28;20060;-61
2022/08/09 04:41:16;;;;;;;5.25;3.30;;;;;;;16.03;87.19;97161.47;5030452;28;20030;-62
2022/08/09 04:43:42;;;;;;;4.75;3.40;;;;;;;16.07;86.80;97158.72;5030617;28;20040;-62
2022/08/09 04:46:07;;;;;;;5.32;3.30;;;;;;;16.07;86.89;97162.25;5030466;28;20026;-62
2022/08/09 04:48:33;;;;;;;5.03;3.53;;;;;;;16.07;86.91;97167.00;5030322;28;20030;-61
2022/08/09 04:50:58;;;;;;;8.00;3.38;;;;;;;16.11;86.45;97165.81;5029276;28;20083;-61
2022/08/09 04:53:24;;;;;;;4.63;3.08;;;;;;;16.10;86.58;97168.97;5029920;28;20079;-61
2022/08/09 04:55:49;;;;;;;5.15;3.65;;;;;;;16.06;87.67;97168.94;5029943;28;20049;-61
2022/08/09 04:58:15;;;;;;;8.05;3.35;;;;;;;16.10;87.69;97177.25;5029442;28;20029;-62
2022/08/09 05:00:40;;;;;;;5.53;3.63;;;;;;;16.08;88.00;97179.63;5020727;28;20159;-62
2022/08/09 05:03:05;;;;;;;4.88;3.47;;;;;;;16.19;86.69;97163.88;5022573;28;20443;-62
2022/08/09 05:05:31;;;;;;;4.35;3.38;;;;;;;16.22;86.54;97174.94;5030007;28;20046;-61
2022/08/09 05:07:57;;;;;;;3.85;3.35;;;;;;;16.26;87.47;97177.69;5030100;28;20398;-60
2022/08/09 05:10:23;;;;;;;6.80;3.80;;;;;;;16.65;84.10;97174.16;5030508;28;20100;-59
2022/08/09 05:12:48;;;;;;;4.45;2.95;;;;;;;16.93;82.80;97178.91;5030208;28;20025;-60
2022/08/09 05:15:14;;;;;;;4.20;3.03;;;;;;;17.03;82.87;97179.31;5029419;28;20072;-60
2022/08/09 05:17:39;;;;;;;6.35;3.20;;;;;;;17.11;81.51;97181.66;5020417;28;20613;-61
2022/08/09 05:20:06;;;;;;;4.88;3.20;;;;;;;17.22;81.41;97180.84;5030248;28;20390;-58
2022/08/09 05:22:31;;;;;;;5.05;3.22;;;;;;;17.36;80.88;97180.81;5021715;28;20061;-59
2022/08/09 05:24:57;;;;;;;4.53;3.00;;;;;;;17.67;78.92;97184.66;5029164;28;20152;-60
2022/08/09 05:27:23;;;;;;;4.65;3.20;;;;;;;17.59;79.09;97183.09;5030035;28;20436;-60
2022/08/09 05:29:48;;;;;;;3.55;3.03;;;;;;;17.59;79.45;97185.88;5027424;28;20033;-60
2022/08/09 05:32:14;;;;;;;4.32;3.13;;;;;;;17.73;78.90;97194.13;5022501;28;20453;-61
2022/08/09 05:34:39;;;;;;;5.25;2.90;;;;;;;17.99;77.32;97183.75;5029572;28;20029;-62
2022/08/09 05:37:06;;;;;;;5.47;3.20;;;;;;;18.21;75.86;97192.75;5025105;28;20036;-62
2022/08/09 05:39:33;;;;;;;4.22;2.83;;;;;;;18.12;76.77;97186.88;5026170;28;20351;-61
2022/08/09 05:41:58;;;;;;;3.85;2.80;;;;;;;18.10;76.53;97187.25;5032159;28;20040;-62
2022/08/09 05:44:26;;;;;;;4.35;3.00;;;;;;;18.24;75.56;97183.63;5035342;28;20037;-61
2022/08/09 05:46:51;;;;;;;5.28;2.40;;;;;;;18.72;74.41;97185.63;5037032;28;20065;-61
2022/08/09 05:49:17;;;;;;;4.10;2.80;;;;;;;18.59;74.12;97181.00;5029035;28;20130;-61
2022/08/09 05:51:42;;;;;;;5.95;2.88;;;;;;;19.02;71.84;97187.00;5020995;28;20033;-61
2022/08/09 05:54:08;;;;;;;3.63;2.85;;;;;;;18.77;73.02;97180.88;5029803;28;20462;-61
2022/08/09 05:56:33;;;;;;;2.65;2.33;;;;;;;18.67;73.84;97190.84;5029271;28;20037;-60
2022/08/09 05:58:59;;;;;;;3.33;2.60;;;;;;;18.83;72.81;97185.56;5029567;28;20101;-61
2022/08/09 06:01:28;;;;;;;4.25;2.42;;;;;;;19.39;70.62;97193.78;5022212;28;20057;-62
2022/08/09 06:03:55;;;;;;;5.07;2.67;;;;;;;19.48;69.54;97191.31;5028645;28;20022;-61
2022/08/09 06:06:20;;;;;;;7.50;2.38;;;;;;;20.22;67.35;97203.91;5022495;28;20026;-60
2022/08/09 06:08:46;;;;;;;3.42;2.40;;;;;;;19.85;68.77;97202.81;5027254;28;20092;-62
2022/08/09 06:11:11;;;;;;;3.70;2.40;;;;;;;20.09;67.79;97206.47;5027720;28;20061;-63
2022/08/09 06:13:37;;;;;;;6.25;2.60;;;;;;;20.18;67.47;97200.38;5029232;28;20425;-63
2022/08/09 06:16:03;;;;;;;4.18;2.20;;;;;;;20.18;66.38;97194.81;5032718;28;20098;-62
2022/08/09 06:18:29;;;;;;;2.97;2.33;;;;;;;20.34;65.32;97214.47;5032821;28;20514;-59
2022/08/09 06:20:55;;;;;;;4.43;2.42;;;;;;;20.51;65.45;97206.28;5033044;28;20053;-63
2022/08/09 06:23:21;;;;;;;5.22;2.15;;;;;;;20.49;63.22;97211.47;5033108;28;20103;-61
2022/08/09 06:25:47;;;;;;;6.13;1.95;;;;;;;20.85;64.15;97214.53;5032403;28;20022;-62
2022/08/09 06:28:12;;;;;;;4.80;2.25;;;;;;;20.18;64.58;97217.06;5023881;28;20032;-62
2022/08/09 06:30:38;;;;;;;5.07;2.20;;;;;;;20.54;63.28;97220.13;5032902;28;20029;-63
2022/08/09 06:33:03;;;;;;;3.42;2.13;;;;;;;20.58;62.02;97217.28;5031761;28;20118;-62
2022/08/09 06:35:29;;;;;;;4.90;2.35;;;;;;;20.83;61.98;97230.84;5032571;28;20034;-64
2022/08/09 06:37:54;;;;;;;2.95;2.13;;;;;;;20.99;61.51;97221.84;5032938;28;20399;-63
2022/08/09 06:40:20;;;;;;;4.78;3.42;;;;;;;21.88;59.94;97227.81;5032888;28;20075;-63
2022/08/09 06:42:45;;;;;;;4.32;2.60;;;;;;;21.62;58.41;97218.38;5031548;28;20065;-63
2022/08/09 06:45:11;;;;;;;6.95;2.50;;;;;;;21.30;59.82;97224.50;5032816;28;20079;-62
2022/08/09 06:47:36;;;;;;;6.13;2.13;;;;;;;21.93;57.90;97223.72;5032345;28;20557;-62
2022/08/09 06:50:03;;;;;;;2.75;1.98;;;;;;;21.51;59.42;97232.50;5028536;28;20056;-62
2022/08/09 06:52:28;;;;;;;4.78;2.00;;;;;;;22.18;57.71;97237.16;5027976;28;20036;-62
2022/08/09 06:54:53;;;;;;;4.30;2.45;;;;;;;21.50;59.52;97230.94;5031251;28;20037;-61
2022/08/09 06:57:19;;;;;;;5.45;2.15;;;;;;;21.90;59.09;97238.56;5032198;28;20033;-62
2022/08/09 06:59:45;;;;;;;6.95;1.77;;;;;;;22.17;59.07;97235.59;5032179;28;20451;-66
2022/08/09 07:02:11;;;;;;;6.90;2.00;;;;;;;22.50;56.80;97232.91;5032334;28;20557;-62
2022/08/09 07:04:36;;;;;;;3.65;2.00;;;;;;;22.39;57.02;97237.97;5029285;28;20514;-64
2022/08/09 07:07:03;;;;;;;3.15;2.15;;;;;;;22.00;58.39;97233.97;5031864;28;20036;-66
2022/08/09 07:09:28;;;;;;;5.65;2.30;;;;;;;21.66;58.67;97241.41;5032108;28;20120;-66
2022/08/09 07:11:54;;;;;;;3.65;2.30;;;;;;;22.11;57.11;97238.13;5032196;28;20483;-65
2022/08/09 07:14:19;;;;;;;4.53;2.05;;;;;;;22.08;57.88;97238.97;5031141;28;20596;-66
2022/08/09 07:16:45;;;;;;;2.72;1.88;;;;;;;22.95;54.23;97232.25;5023086;28;20029;-67
2022/08/09 07:19:12;;;;;;;3.17;1.95;;;;;;;22.67;56.38;97239.28;5032256;28;20351;-67
2022/08/09 07:21:38;;;;;;;3.30;1.77;;;;;;;22.71;54.49;97234.44;5032461;28;20064;-65
2022/08/09 07:24:04;;;;;;;9.15;3.63;;;;;;;23.41;52.97;97233.13;5031061;28;20032;-65
2022/08/09 07:26:30;;;;;;;3.80;1.85;;;;;;;22.96;53.75;97235.81;5031891;28;20034;-66
2022/08/09 07:28:56;;;;;;;3.65;1.90;;;;;;;23.42;52.78;97231.09;5030627;28;20107;-64
2022/08/09 07:31:22;;;;;;;4.63;1.88;;;;;;;23.16;53.20;97230.97;5031607;28;20021;-64
2022/08/09 07:33:48;;;;;;;2.20;1.50;;;;;;;22.45;54.80;97228.63;5029154;28;20025;-65
2022/08/09 07:36:14;;;;;;;2.67;1.90;;;;;;;23.01;53.42;97227.72;5024890;28;20512;-65
2022/08/09 07:38:40;;;;;;;3.03;1.80;;;;;;;23.12;54.39;97229.47;5031621;28;20044;-65
2022/08/09 07:41:05;;;;;;;3.40;1.70;;;;;;;23.17;53.14;97243.69;5031759;28;20029;-66
2022/08/09 07:43:31;;;;;;;3.97;1.35;;;;;;;22.89;53.06;97243.16;5031325;28;20033;-65
2022/08/09 07:45:56;;;;;;;3.67;1.92;;;;;;;22.66;54.44;97232.94;5031168;28;20069;-64
2022/08/09 07:48:22;;;;;;;12.05;1.90;;;;;;;23.17;52.27;97235.31;5030336;28;20037;-65
2022/08/09 07:50:48;;;;;;;2.88;1.70;;;;;;;23.50;51.92;97231.69;5018957;28;20378;-65
2022/08/09 07:53:13;;;;;;;3.00;1.63;;;;;;;23.43;51.67;97235.47;5015873;28;20119;-67
2022/08/09 07:55:38;;;;;;;3.28;1.95;;;;;;;23.09;53.66;97243.09;5021095;28;20075;-66
2022/08/09 07:58:04;;;;;;;2.60;1.58;;;;;;;23.53;51.98;97242.00;5017321;28;20053;-68
2022/08/09 08:00:30;;;;;;;5.32;1.60;;;;;;;23.94;51.74;97235.69;5021927;28;20164;-65
2022/08/09 08:02:57;;;;;;;4.18;1.73;;;;;;;23.81;51.61;97243.28;5012729;28;20041;-65
2022/08/09 08:05:23;;;;;;;4.05;1.85;;;;;;;23.68;51.46;97248.78;5015440;28;20053;-65
2022/08/09 08:07:48;;;;;;;6.68;4.10;;;;;;;24.39;50.67;97240.38;5020056;28;20045;-65
2022/08/09 08:10:13;;;;;;;5.38;2.05;;;;;;;24.07;50.34;97240.53;5014938;28;20529;-64
2022/08/09 08:12:41;;;;;;;2.35;1.52;;;;;;;24.71;50.80;97241.44;5020017;28;20045;-64
2022/08/09 08:15:08;;;;;;;3.63;1.52;;;;;;;24.49;50.01;97237.69;5015232;28;20057;-65
2022/08/09 08:17:34;;;;;;;2.00;1.60;;;;;;;24.07;51.38;97226.56;5011426;28;20045;-64
2022/08/09 08:19:59;;;;;;;4.38;1.60;;;;;;;23.55;51.22;97233.97;5019798;28;20041;-67
2022/08/09 08:22:25;;;;;;;5.25;2.00;;;;;;;24.09;52.36;97236.06;5014501;28;20060;-65
2022/08/09 08:24:54;;;;;;;5.63;1.60;;;;;;;24.24;52.24;97228.06;5019424;28;20065;-66
2022/08/09 08:27:20;;;;;;;;;;;;;;;23.75;50.28;97223.44;5016094;28;20037;-66
2022/08/09 08:29:46;;;;;;;4.45;1.73;;;;;;;23.80;51.85;97236.88;5016670;28;19917;-68
2022/08/09 08:32:11;;;;;;;5.10;2.17;;;;;;;24.31;52.14;97225.03;5015699;28;20042;-68
2022/08/09 08:34:36;;;;;;;4.25;1.77;;;;;;;24.96;50.08;97225.88;5018946;28;20096;-65
2022/08/09 08:37:02;;;;;;;3.42;1.65;;;;;;;24.98;51.06;97223.38;5017612;28;20033;-71
2022/08/09 08:39:28;;;;;;;2.85;1.58;;;;;;;24.53;49.96;97218.81;5013451;28;20042;-64
2022/08/09 08:41:53;;;;;;;3.13;1.70;;;;;;;24.92;50.98;97220.38;5010381;28;20137;-65
2022/08/09 08:44:21;;;;;;;4.25;1.98;;;;;;;24.44;51.25;97222.25;5015148;28;20060;-64
2022/08/09 08:46:47;;;;;;;6.05;3.13;;;;;;;24.34;51.61;97218.53;5019640;28;20049;-64
2022/08/09 08:49:13;;;;;;;3.65;1.80;;;;;;;24.71;50.74;97219.03;5009362;28;20454;-64
2022/08/09 08:51:39;;;;;;;4.25;1.90;;;;;;;24.17;50.73;97220.66;5011619;28;20486;-63
2022/08/09 08:54:07;;;;;;;5.82;1.90;;;;;;;24.63;48.82;97226.09;5015906;28;20107;-70
2022/08/09 08:56:37;;;;;;;4.55;1.35;;;;;;;24.77;46.05;97225.63;5018529;28;20482;-65
2022/08/09 08:59:11;;;;;;;2.75;1.42;;;;;;;24.61;43.83;97226.56;5017667;28;20081;-69
2022/08/09 09:01:40;;;;;;;2.63;1.60;;;;;;;24.67;43.40;97239.97;5018254;28;20055;-65
2022/08/09 09:04:10;;;;;;;2.70;1.30;;;;;;;25.00;42.71;97230.09;5013181;28;20037;-70
2022/08/09 09:06:40;;;;;;;2.88;1.55;;;;;;;25.68;44.94;97217.84;5019529;28;20541;-64
2022/08/09 09:09:07;;;;;;;3.55;1.73;;;;;;;25.30;44.21;97216.72;4997514;28;20041;-65
2022/08/09 09:11:34;;;;;;;3.15;1.60;;;;;;;25.44;44.26;97226.66;5019829;28;20402;-64
2022/08/09 09:14:06;;;;;;;6.78;1.90;;;;;;;24.75;45.57;97230.91;5019642;28;20046;-64
2022/08/09 09:16:32;;;;;;;2.40;1.40;;;;;;;25.50;45.13;97224.06;5018685;28;20049;-64
2022/08/09 09:19:03;;;;;;;3.47;1.42;;;;;;;25.58;44.34;97225.38;5014248;28;20041;-65
2022/08/09 09:21:28;;;;;;;4.90;1.45;;;;;;;25.62;44.81;97231.63;5012486;28;20048;-65
2022/08/09 09:23:53;;;;;;;3.40;1.17;;;;;;;25.06;45.08;97230.31;5019469;28;20045;-65
2022/08/09 09:26:22;;;;;;;3.90;1.40;;;;;;;25.23;44.19;97244.16;5002837;28;20041;-66
2022/08/09 09:28:48;;;;;;;5.95;2.20;;;;;;;25.16;42.58;97236.81;5019475;28;20037;-64
2022/08/09 09:31:18;;;;;;;2.55;1.45;;;;;;;25.54;43.01;97235.94;5013370;28;20065;-63
2022/08/09 09:33:44;;;;;;;2.85;1.25;;;;;;;25.69;42.44;97239.81;5019769;28;20034;-64
2022/08/09 09:36:12;;;;;;;3.97;1.50;;;;;;;24.61;44.31;97234.97;5013965;28;20042;-64
2022/08/09 09:38:49;;;;;;;3.75;1.50;;;;;;;25.92;43.78;97224.53;5018820;28;20506;-65
2022/08/09 09:41:27;;;;;;;1.92;1.30;;;;;;;25.66;42.72;97229.50;5007766;28;20051;-66
2022/08/09 09:43:53;;;;;;;2.75;1.20;;;;;;;25.90;40.35;97238.25;5019687;28;20064;-65
2022/08/09 09:46:19;;;;;;;4.47;1.40;;;;;;;25.45;41.88;97228.22;5013996;28;20037;-65
2022/08/09 09:48:56;;;;;;;4.75;1.63;;;;;;;25.47;42.18;97236.97;5019769;28;20045;-65
2022/08/09 09:51:22;;;;;;;1.65;1.15;;;;;;;25.36;42.82;97230.97;5010850;28;20061;-66
2022/08/09 09:54:07;;;;;;;2.90;1.30;;;;;;;25.65;41.63;97230.72;5020881;28;20038;-65
2022/08/09 09:56:35;;;;;;;5.50;1.40;;;;;;;26.23;39.47;97231.47;5021104;28;20076;-65
2022/08/09 09:59:00;;;;;;;1.88;1.13;;;;;;;25.77;42.96;97234.75;5014412;28;20044;-67
2022/08/09 10:01:27;;;;;;;2.03;1.20;;;;;;;24.96;42.92;97234.25;5017349;28;20490;-65
2022/08/09 10:03:54;;;;;;;6.28;1.80;;;;;;;25.05;43.51;97231.56;5021597;28;20103;-66
2022/08/09 10:06:19;;;;;;;2.22;1.13;;;;;;;25.39;43.03;97232.88;5015071;28;20073;-64
2022/08/09 10:08:47;;;;;;;2.47;1.20;;;;;;;26.36;40.02;97234.97;5023432;28;20188;-65
2022/08/09 10:11:21;;;;;;;2.95;1.35;;;;;;;25.99;40.74;97239.59;5014296;28;20033;-64
2022/08/09 10:13:48;;;;;;;4.80;1.38;;;;;;;25.97;39.44;97237.25;5021948;28;20044;-67
2022/08/09 10:16:15;;;;;;;5.53;1.20;;;;;;;25.06;41.75;97246.34;5017151;28;20049;-64
2022/08/09 10:18:52;;;;;;;3.00;1.50;;;;;;;25.06;41.08;97241.50;5022593;28;20045;-64
2022/08/09 10:21:18;;;;;;;3.00;1.40;;;;;;;25.23;41.11;97249.78;5015919;28;20510;-66
2022/08/09 10:23:45;;;;;;;3.38;1.55;;;;;;;25.16;41.12;97236.81;5021951;28;20490;-65
2022/08/09 10:26:12;;;;;;;4.28;1.17;;;;;;;25.22;40.58;97245.44;5015481;28;20053;-64
2022/08/09 10:28:40;;;;;;;3.10;1.10;;;;;;;25.35;40.42;97232.97;5022906;28;20041;-64
2022/08/09 10:31:08;;;;;;;4.57;1.23;;;;;;;25.76;40.90;97238.78;5017425;28;20034;-64
2022/08/09 10:33:34;;;;;;;2.38;1.00;;;;;;;25.96;40.52;97241.28;5022193;28;20383;-64
2022/08/09 10:36:00;;;;;;;5.03;1.27;;;;;;;25.44;40.09;97237.09;5020443;28;20052;-64
2022/08/09 10:38:25;;;;;;;2.50;1.20;;;;;;;25.72;41.34;97235.31;5016237;28;20045;-65
2022/08/09 10:40:51;;;;;;;4.85;1.30;;;;;;;25.47;39.46;97231.38;5020576;28;20378;-66
2022/08/09 10:43:17;;;;;;;4.65;1.50;;;;;;;25.30;39.29;97244.78;5015499;28;20041;-66
2022/08/09 10:45:44;;;;;;;1.77;1.05;;;;;;;25.44;40.22;97239.91;5020637;28;20573;-65
2022/08/09 10:48:40;;;;;;;8.48;1.30;;;;;;;25.24;40.11;97234.53;5014173;28;20041;-66
2022/08/09 10:51:13;;;;;;;3.35;1.25;;;;;;;25.66;39.82;97249.16;5014479;28;20029;-66
2022/08/09 10:53:58;;;;;;;11.65;1.20;;;;;;;25.84;39.16;97236.47;5019484;28;20099;-64
2022/08/09 10:56:35;;;;;;;3.78;1.30;;;;;;;25.52;38.78;97239.19;5031374;28;20993;-64
2022/08/09 10:59:27;;;;;;;3.83;1.40;;;;;;;25.90;38.82;97248.69;5020810;28;20069;-67
2022/08/09 11:01:53;;;;;;;4.85;1.23;;;;;;;25.86;39.87;97242.44;5019996;28;20060;-65
2022/08/09 11:04:23;;;;;;;3.00;1.40;;;;;;;25.72;39.89;97238.91;5016072;28;20037;-66
2022/08/09 11:07:08;;;;;;;6.00;1.52;;;;;;;25.94;39.52;97238.16;5021404;28;20201;-64
2022/08/09 11:09:54;;;;;;;5.78;2.28;;;;;;;25.50;40.89;97235.28;5020945;28;21810;-66
2022/08/09 11:12:23;;;;;;;8.05;2.80;;;;;;;26.36;39.66;97242.63;5015248;28;20091;-65
2022/08/09 11:15:06;;;;;;;3.83;1.77;;;;;;;25.52;40.96;97244.81;5018459;28;20089;-65
2022/08/09 11:17:33;;;;;;;4.05;1.30;;;;;;;25.90;41.21;97240.28;5018930;28;20057;-64
2022/08/09 11:20:07;;;;;;;5.63;1.45;;;;;;;26.15;39.69;97238.63;5021459;28;20041;-65
2022/08/09 11:22:45;;;;;;;2.25;1.23;;;;;;;26.20;39.45;97243.63;5020542;28;20080;-65
2022/08/09 11:25:15;;;;;;;9.95;2.08;;;;;;;26.12;39.47;97245.91;5016455;28;20045;-65
2022/08/09 11:27:49;;;;;;;3.80;1.80;;;;;;;26.30;38.59;97236.81;5020779;28;20524;-64
2022/08/09 11:30:20;;;;;;;5.05;1.75;;;;;;;26.37;38.87;97242.16;5010034;28;20046;-64
2022/08/09 11:33:04;;;;;;;3.53;1.33;;;;;;;26.05;37.90;97244.16;5019198;28;20041;-65
2022/08/09 11:35:39;;;;;;;6.00;2.95;;;;;;;26.21;38.34;97254.41;5019608;28;20180;-65
2022/08/09 11:38:19;;;;;;;1.65;1.17;;;;;;;25.69;38.99;97244.63;5007967;28;20043;-65